Gulkana Airport Gulkana US
ICAO: PAGK
IATA:
Category: Medium
Scheduled Services:

Elevation: 1586 ft
TransAlt. 18000 ft.

Airport Communications:
ASOS:134.85
ANCHORAGE CNTR:119.5
CTAF:122.9
KENAI RDO:122.2
TWEB:115.6

PAGK Zoom In..

If you have problems with the map follow the link
https://www.worldairports.se/pages/airport.php?
ICAO=PAGK

Runways:

(A) RW 15 length 5001 ft width 100 ft
---- / hdg 148

(B) RW 33 length 5001 ft width 100 ft
---- / hdg 328

Location; PAGK
Day. 21 / Time. 18.53 Zulu
* Altimeter: 29.57
* Temperature: 06° c. 42.8°f.
* Wind from: 170° Speed 08 kn.
Dewpoint: 01° c.
Visibility: 10 Statute Miles.
Clouds: Clear (automated report).

PAGK 211853Z AUTO 17008KT 10SM CLR 06/01 A2957 RMK AO2 SLP028 T00610011 TSNO


Wind From 170°
Speed 08 kn.

 
 
jpsmedia.com for Web Design worldairports.se 2018   terms of use